INDIA METEOROLOGICAL DEPARTMENT, R.M.C. NEW DELHI
Dated:24-06-2018
METARS


Agartala   
VEAT 240100Z 14003KT 5000 BR SCT018 BKN100 27/24 Q1002 NOSIG=
Ahmedabad  
VAAH 240100Z 13008KT 3000 -TSRA SCT012 SCT020 BKN080 FEW030CB 26/23 Q1003 TEMPO 2000 TSRA=
Amritsar   
VIAR 240100Z VRB02KT 3000 BR NSC 27/21 Q1000 NOSIG=
Aurangabad 
VAAU 240000Z 25005KT 6000 SCT020 SCT025 BKN100 23/22 Q1005 NOSIG=
Bangalore  
VOBL 240100Z 26008KT 6000 SCT010 SCT080 21/21 Q1012 NOSIG=
Baroda     
VABO 240100Z 09006KT 3000 -TSRA BKN012 SCT020 FEW030CB OVC080 27/26 Q1002 NOSIG=
Bhopal     
VABP 240100Z 23004KT 6000 NSC 25/21 Q1004 NOSIG=
Bhubaneswar
VEBS 240100Z 25003KT 3000 HZ BKN018 BKN100 28/27 Q1002 BECMG 5000 HZ=
Bhuntar    
VIBR 240030Z 00000KT 6000 NSC 17/13 Q1008=
Chennai    
VOMM 240100Z 23006KT 6000 BKN018 31/22 Q1006 NOSIG=
Coimbatore 
VOCB 240100Z 20008KT 5000 BR FEW015 SCT080 23/22 Q1010 NOSIG=
Colombo    
VCBI 240040Z 24006KT 200V300 9000 FEW012 SCT016 24/23 Q1009 RESHRA NOSIG=
Delhi      
VIDP 240100Z 32003KT 3000 HZ SCT040 BKN100 34/18 Q1000 NOSIG =
Dehradun   
VIDN 240100Z 35002KT 4000 HZ FEW080 25/20 Q1001 =
Gauhati    
VEGT 240100Z 00000KT 3000 BR FEW010 SCT018 FEW025CB OVC090 29/28 Q1001 NOSIG=
Gaya       
VEGY 240100Z 18007KT 2000 BR SCT018 BKN100 30/27 Q0999 =
Hyderabad  
VOHS 240100Z 26006KT 6000 SCT020 SCT100 24/22 Q1008 NOSIG=
Indore     
VAID 240100Z 34004KT 5000 HZ SCT020 BKN100 24/22 Q1005=
Jaipur     
VIJP 240100Z 30002KT 2000 HZ SCT035 BKN100 33/19 Q1001 NOSIG=
Kochi      
VOCI 240100Z 00000KT 3000 BR FEW012 SCT080 25/24 Q1008 NOSIG=
Kolkata    
VECC 240100Z 20007KT 3200 HZ SCT020 BKN100 29/27 Q1000 NOSIG=
Kozhikode  
VOCL 240100Z 18002KT 6000 SCT012 BKN080 24/21 Q1008 NOSIG=
Lucknow    
VILK 240030Z 09003KT 3000 HZ FEW020 SCT100 31/26 Q0998 NOSIG=
Madurai    
VOMD 240100Z 00000KT 6000 FEW018 SCT100 27/21 Q1008 NOSIG=
Mohanbari  
VEMN 240030Z 00000KT 1500 -RA FEW010 SCT018 BKN090 25/25 Q1002 TEMPO 2000 -RA=
Mumbai     
VABB 240100Z 17004KT 2100 -RA FEW012 SCT018 FEW030CB OVC080 26/25 Q1003 TEMPO 1500 SHRA=
Nagpur     
VANP 240100Z 15003KT 5000 HZ FEW100 27/25 Q1003 BECMG 6 KM=
Patna      
VEPT 240100Z 00000KT 3500 HZ SCT250 30/26 Q0998 NOSIG=
Raipur     
VERP 240030Z 21005KT 5000 HZ SCT100 27/25 Q1003 NOSIG=
Surat     
VASU 240100Z 00000KT 5000 TSRA SCT010 BKN020 FEW030CB OVC080 27/26 Q1002=
Ranchi     
VERC 240030Z 25002KT 3000 HZ SCT020 FEW030CB BKN100 26/23 Q1004 NOSIG=
Trichy     
VOTR 240100Z 27004KT 6000 FEW016 BKN100 28/21 Q1006 NOSIG=
Trivandrum 
VOTV 240100Z 00000KT 4000 HZ FEW010 SCT015 26/24 Q1008 NOSIG=
Udaipur    
VAUD 240100Z 23004KT 4000 HZ FEW030 SCT100 29/23 Q1004 NOSIG=
Varanasi   
VEBN 240030Z VRB02KT 2500 HZ FEW025 31/25 Q0998 NOSIG=
Vizag      
VOVZ 240030Z 27008KT 6000 FEW014 FEW025CB SCT090 28/25 Q1002 NOSIG=
Male       
VRMM 240100Z 24010KT 9999 FEW018 FEW019CB 28/23 Q1010 CB N,SE TEMPO 7000 -TSRA=
Gan        
VRMG 240100Z 19004KT 9999 FEW019 SCT270 28/24 Q1010 NOSIG =
Kathmandu  
VNKT 240100Z NIL=
Dhaka      
VGHS 240100Z 13006KT 3500 HZ SCT012 BKN100 28/26 Q1002 TEMPO RA=
Colombo    
VCBI 240040Z 24006KT 200V300 9000 FEW012 SCT016 24/23 Q1009 RESHRA NOSIG=
Karachi    
OPKC 240055Z 24006KT 6000 BKN020 30/23 Q1000 NOSIG=
Lahore     
OPLA 240055Z 00000KT 4000 FU NSC 30/22 Q1000 A29.52 NOSIG=
Leh        
VILH 232330Z 29010G20KT 6000 SOCC FW060 BKN090 15/M01 Q1021 NOSIG RMK K-ANC REST AC S/R:0510/0539=
Sri Nagar  
VISR 240030Z VRB02KT 4000 FU FEW100 13/12 Q1016 TEMPO 3000M=
Jammu      
VIJU 240030Z 36004KT 6000 NSC 28/14 Q0999 NOSIG=
Gwalior    
VIGR 240000Z 23003KT 4000HZ SCT100 32/21 Q0998=
Pune       
VAPO 240030Z 27005KT 6000 FEW020 SCT030 22/20 Q1007 NOSIG=